sensor_id;sensor_type;location;lat;lon;timestamp;temperature;humidity
5027;DHT22;2532;52.480;13.354;2023-09-07T04:02:15;20.70;93.40
5027;DHT22;2532;52.480;13.354;2023-09-07T04:04:43;20.70;93.40
5027;DHT22;2532;52.480;13.354;2023-09-07T04:07:10;20.60;93.40
5027;DHT22;2532;52.480;13.354;2023-09-07T04:09:37;20.60;93.40
5027;DHT22;2532;52.480;13.354;2023-09-07T04:12:04;20.60;93.50
5027;DHT22;2532;52.480;13.354;2023-09-07T04:14:32;20.60;93.60
5027;DHT22;2532;52.480;13.354;2023-09-07T04:16:58;20.50;93.60
5027;DHT22;2532;52.480;13.354;2023-09-07T04:19:27;20.50;93.70
5027;DHT22;2532;52.480;13.354;2023-09-07T04:21:54;20.50;93.80
5027;DHT22;2532;52.480;13.354;2023-09-07T04:24:21;20.50;93.80
5027;DHT22;2532;52.480;13.354;2023-09-07T04:26:48;20.40;93.80
5027;DHT22;2532;52.480;13.354;2023-09-07T04:29:15;20.40;93.90
5027;DHT22;2532;52.480;13.354;2023-09-07T04:31:42;20.40;93.90
5027;DHT22;2532;52.480;13.354;2023-09-07T04:34:09;20.40;94.30
5027;DHT22;2532;52.480;13.354;2023-09-07T04:36:37;20.30;94.00
5027;DHT22;2532;52.480;13.354;2023-09-07T04:39:04;20.40;94.10
5027;DHT22;2532;52.480;13.354;2023-09-07T04:41:31;20.30;94.10
5027;DHT22;2532;52.480;13.354;2023-09-07T04:43:58;20.40;94.20
5027;DHT22;2532;52.480;13.354;2023-09-07T04:46:25;20.30;94.20
5027;DHT22;2532;52.480;13.354;2023-09-07T04:48:51;20.30;94.20
5027;DHT22;2532;52.480;13.354;2023-09-07T04:51:18;20.30;94.20
5027;DHT22;2532;52.480;13.354;2023-09-07T04:53:48;20.30;94.30
5027;DHT22;2532;52.480;13.354;2023-09-07T04:56:15;20.30;94.30
5027;DHT22;2532;52.480;13.354;2023-09-07T04:58:42;20.30;94.40
5027;DHT22;2532;52.480;13.354;2023-09-07T05:01:10;20.30;94.50
5027;DHT22;2532;52.480;13.354;2023-09-07T05:03:38;20.30;94.50
5027;DHT22;2532;52.480;13.354;2023-09-07T05:06:06;20.30;94.40
5027;DHT22;2532;52.480;13.354;2023-09-07T05:08:33;20.30;94.40
5027;DHT22;2532;52.480;13.354;2023-09-07T05:11:03;20.40;94.70
5027;DHT22;2532;52.480;13.354;2023-09-07T05:13:30;20.30;94.30
5027;DHT22;2532;52.480;13.354;2023-09-07T05:15:59;20.40;94.40
5027;DHT22;2532;52.480;13.354;2023-09-07T05:18:27;20.40;94.40
5027;DHT22;2532;52.480;13.354;2023-09-07T05:20:53;20.40;94.40
5027;DHT22;2532;52.480;13.354;2023-09-07T05:23:21;20.40;94.40
5027;DHT22;2532;52.480;13.354;2023-09-07T05:25:51;20.40;94.40
5027;DHT22;2532;52.480;13.354;2023-09-07T05:28:21;20.40;94.30
5027;DHT22;2532;52.480;13.354;2023-09-07T05:30:48;20.40;94.30
5027;DHT22;2532;52.480;13.354;2023-09-07T05:33:17;20.40;94.30
5027;DHT22;2532;52.480;13.354;2023-09-07T05:35:44;20.50;94.30
5027;DHT22;2532;52.480;13.354;2023-09-07T05:38:12;20.50;94.20
5027;DHT22;2532;52.480;13.354;2023-09-07T05:40:40;20.50;94.10
5027;DHT22;2532;52.480;13.354;2023-09-07T05:43:07;20.50;94.10
5027;DHT22;2532;52.480;13.354;2023-09-07T05:45:38;20.60;94.10
5027;DHT22;2532;52.480;13.354;2023-09-07T05:48:05;20.60;94.10
5027;DHT22;2532;52.480;13.354;2023-09-07T05:50:34;20.60;94.00
5027;DHT22;2532;52.480;13.354;2023-09-07T05:53:01;20.60;94.00
5027;DHT22;2532;52.480;13.354;2023-09-07T05:55:29;20.70;94.00
5027;DHT22;2532;52.480;13.354;2023-09-07T05:57:56;20.70;94.00
5027;DHT22;2532;52.480;13.354;2023-09-07T06:00:23;20.80;94.20
5027;DHT22;2532;52.480;13.354;2023-09-07T06:02:52;20.80;93.90
5027;DHT22;2532;52.480;13.354;2023-09-07T06:05:19;20.80;93.80
5027;DHT22;2532;52.480;13.354;2023-09-07T06:07:46;20.90;93.70
5027;DHT22;2532;52.480;13.354;2023-09-07T06:10:13;20.90;93.70
5027;DHT22;2532;52.480;13.354;2023-09-07T06:12:40;21.00;93.70
5027;DHT22;2532;52.480;13.354;2023-09-07T06:15:08;21.00;93.60
5027;DHT22;2532;52.480;13.354;2023-09-07T06:17:36;21.10;93.50
5027;DHT22;2532;52.480;13.354;2023-09-07T06:20:06;21.20;93.30
5027;DHT22;2532;52.480;13.354;2023-09-07T06:22:34;21.20;93.30
5027;DHT22;2532;52.480;13.354;2023-09-07T06:25:01;21.30;93.30
5027;DHT22;2532;52.480;13.354;2023-09-07T06:27:28;21.40;93.30
5027;DHT22;2532;52.480;13.354;2023-09-07T06:29:55;21.40;93.30
5027;DHT22;2532;52.480;13.354;2023-09-07T06:32:22;21.50;93.30
5027;DHT22;2532;52.480;13.354;2023-09-07T06:34:49;21.50;93.10
5027;DHT22;2532;52.480;13.354;2023-09-07T06:37:17;21.60;92.90
5027;DHT22;2532;52.480;13.354;2023-09-07T06:39:44;21.60;93.00
5027;DHT22;2532;52.480;13.354;2023-09-07T06:42:11;21.70;92.90
5027;DHT22;2532;52.480;13.354;2023-09-07T06:44:38;21.70;92.60
5027;DHT22;2532;52.480;13.354;2023-09-07T06:47:05;21.80;92.40
5027;DHT22;2532;52.480;13.354;2023-09-07T06:49:32;21.90;92.20
5027;DHT22;2532;52.480;13.354;2023-09-07T06:52:02;21.90;92.10
5027;DHT22;2532;52.480;13.354;2023-09-07T06:54:30;22.00;92.00
5027;DHT22;2532;52.480;13.354;2023-09-07T06:56:59;22.10;92.10
5027;DHT22;2532;52.480;13.354;2023-09-07T06:59:26;22.10;91.80
5027;DHT22;2532;52.480;13.354;2023-09-07T07:01:53;22.20;91.50
5027;DHT22;2532;52.480;13.354;2023-09-07T07:04:20;22.30;91.50
5027;DHT22;2532;52.480;13.354;2023-09-07T07:06:47;22.40;91.40
5027;DHT22;2532;52.480;13.354;2023-09-07T07:09:14;22.50;91.40
5027;DHT22;2532;52.480;13.354;2023-09-07T07:11:43;22.50;91.30
5027;DHT22;2532;52.480;13.354;2023-09-07T07:14:10;22.60;91.10
5027;DHT22;2532;52.480;13.354;2023-09-07T07:16:37;22.70;91.00
5027;DHT22;2532;52.480;13.354;2023-09-07T07:19:04;22.80;90.70
5027;DHT22;2532;52.480;13.354;2023-09-07T07:21:31;22.80;90.80
5027;DHT22;2532;52.480;13.354;2023-09-07T07:23:58;22.80;90.60
5027;DHT22;2532;52.480;13.354;2023-09-07T07:26:25;22.90;90.60
5027;DHT22;2532;52.480;13.354;2023-09-07T07:28:53;23.00;90.70
5027;DHT22;2532;52.480;13.354;2023-09-07T07:31:20;23.00;90.70
5027;DHT22;2532;52.480;13.354;2023-09-07T07:33:47;23.10;90.80
5027;DHT22;2532;52.480;13.354;2023-09-07T07:36:15;23.10;90.70
5027;DHT22;2532;52.480;13.354;2023-09-07T07:38:42;23.20;90.70
5027;DHT22;2532;52.480;13.354;2023-09-07T07:41:09;23.30;90.50
5027;DHT22;2532;52.480;13.354;2023-09-07T07:43:35;23.40;90.40
5027;DHT22;2532;52.480;13.354;2023-09-07T07:46:04;23.40;90.00
5027;DHT22;2532;52.480;13.354;2023-09-07T07:48:31;23.40;89.90
5027;DHT22;2532;52.480;13.354;2023-09-07T07:51:03;23.50;90.20
5027;DHT22;2532;52.480;13.354;2023-09-07T07:53:30;23.60;90.10
5027;DHT22;2532;52.480;13.354;2023-09-07T07:55:57;23.60;89.80
5027;DHT22;2532;52.480;13.354;2023-09-07T07:58:24;23.70;89.60
5027;DHT22;2532;52.480;13.354;2023-09-07T08:00:51;23.80;89.80
5027;DHT22;2532;52.480;13.354;2023-09-07T08:03:20;23.80;89.50
5027;DHT22;2532;52.480;13.354;2023-09-07T08:05:47;23.90;89.20
5027;DHT22;2532;52.480;13.354;2023-09-07T08:08:14;23.90;89.00
5027;DHT22;2532;52.480;13.354;2023-09-07T08:10:41;24.00;88.80
5027;DHT22;2532;52.480;13.354;2023-09-07T08:13:08;24.10;88.70
5027;DHT22;2532;52.480;13.354;2023-09-07T08:15:35;24.10;88.60
5027;DHT22;2532;52.480;13.354;2023-09-07T08:18:02;24.20;88.00
5027;DHT22;2532;52.480;13.354;2023-09-07T08:20:32;24.30;88.20
5027;DHT22;2532;52.480;13.354;2023-09-07T08:22:59;24.40;88.00
5027;DHT22;2532;52.480;13.354;2023-09-07T08:25:29;24.50;87.60
5027;DHT22;2532;52.480;13.354;2023-09-07T08:27:56;24.60;86.80
5027;DHT22;2532;52.480;13.354;2023-09-07T08:30:25;24.70;86.80
5027;DHT22;2532;52.480;13.354;2023-09-07T08:32:52;24.80;86.20
5027;DHT22;2532;52.480;13.354;2023-09-07T08:35:19;24.80;85.90
5027;DHT22;2532;52.480;13.354;2023-09-07T08:37:47;24.90;86.10
5027;DHT22;2532;52.480;13.354;2023-09-07T08:40:14;25.00;85.60
5027;DHT22;2532;52.480;13.354;2023-09-07T08:42:43;25.10;84.20
5027;DHT22;2532;52.480;13.354;2023-09-07T08:45:13;25.20;83.40
5027;DHT22;2532;52.480;13.354;2023-09-07T08:47:44;25.30;83.40
5027;DHT22;2532;52.480;13.354;2023-09-07T08:50:12;25.40;83.80
5027;DHT22;2532;52.480;13.354;2023-09-07T08:52:40;25.50;82.90
5027;DHT22;2532;52.480;13.354;2023-09-07T08:55:10;25.50;82.10
5027;DHT22;2532;52.480;13.354;2023-09-07T08:57:38;25.60;80.70
5027;DHT22;2532;52.480;13.354;2023-09-07T09:00:06;25.60;80.30
5027;DHT22;2532;52.480;13.354;2023-09-07T09:02:39;25.70;79.90
5027;DHT22;2532;52.480;13.354;2023-09-07T09:05:09;25.80;80.20
5027;DHT22;2532;52.480;13.354;2023-09-07T09:07:36;25.90;78.90
5027;DHT22;2532;52.480;13.354;2023-09-07T09:10:04;26.00;78.90
5027;DHT22;2532;52.480;13.354;2023-09-07T09:12:33;26.10;79.50
5027;DHT22;2532;52.480;13.354;2023-09-07T09:15:01;26.20;78.70
5027;DHT22;2532;52.480;13.354;2023-09-07T09:17:29;26.20;78.50
5027;DHT22;2532;52.480;13.354;2023-09-07T09:19:56;26.30;79.20
5027;DHT22;2532;52.480;13.354;2023-09-07T09:22:23;26.30;78.90
5027;DHT22;2532;52.480;13.354;2023-09-07T09:24:50;26.50;78.10
5027;DHT22;2532;52.480;13.354;2023-09-07T09:27:17;26.50;77.40
5027;DHT22;2532;52.480;13.354;2023-09-07T09:29:46;26.60;77.00
5027;DHT22;2532;52.480;13.354;2023-09-07T09:32:14;26.70;77.10
5027;DHT22;2532;52.480;13.354;2023-09-07T09:34:43;26.70;76.30
5027;DHT22;2532;52.480;13.354;2023-09-07T09:37:14;26.80;76.30
5027;DHT22;2532;52.480;13.354;2023-09-07T09:39:42;26.80;76.20
5027;DHT22;2532;52.480;13.354;2023-09-07T09:42:10;26.90;75.40
5027;DHT22;2532;52.480;13.354;2023-09-07T09:44:37;27.00;74.80
5027;DHT22;2532;52.480;13.354;2023-09-07T09:47:08;27.00;75.50
5027;DHT22;2532;52.480;13.354;2023-09-07T09:49:37;27.10;74.90
5027;DHT22;2532;52.480;13.354;2023-09-07T09:52:05;27.20;75.10
5027;DHT22;2532;52.480;13.354;2023-09-07T09:54:35;27.30;74.00
5027;DHT22;2532;52.480;13.354;2023-09-07T09:57:02;27.30;73.70
5027;DHT22;2532;52.480;13.354;2023-09-07T09:59:29;27.40;73.40
5027;DHT22;2532;52.480;13.354;2023-09-07T10:01:57;27.40;72.50
5027;DHT22;2532;52.480;13.354;2023-09-07T10:04:28;27.50;72.00
5027;DHT22;2532;52.480;13.354;2023-09-07T10:06:58;27.60;71.20
5027;DHT22;2532;52.480;13.354;2023-09-07T10:09:29;27.70;71.30
5027;DHT22;2532;52.480;13.354;2023-09-07T10:11:58;27.70;71.10
5027;DHT22;2532;52.480;13.354;2023-09-07T10:14:25;27.70;71.70
5027;DHT22;2532;52.480;13.354;2023-09-07T10:16:53;27.80;71.50
5027;DHT22;2532;52.480;13.354;2023-09-07T10:19:27;27.90;70.70
5027;DHT22;2532;52.480;13.354;2023-09-07T10:21:55;28.00;69.60
5027;DHT22;2532;52.480;13.354;2023-09-07T10:24:26;28.00;69.70
5027;DHT22;2532;52.480;13.354;2023-09-07T10:26:57;28.10;70.50
5027;DHT22;2532;52.480;13.354;2023-09-07T10:29:25;28.20;70.40
5027;DHT22;2532;52.480;13.354;2023-09-07T10:31:53;28.30;70.40
5027;DHT22;2532;52.480;13.354;2023-09-07T10:34:20;28.30;69.90
5027;DHT22;2532;52.480;13.354;2023-09-07T10:36:56;28.30;68.80
5027;DHT22;2532;52.480;13.354;2023-09-07T10:39:22;28.40;70.10
5027;DHT22;2532;52.480;13.354;2023-09-07T10:41:49;28.40;69.00
5027;DHT22;2532;52.480;13.354;2023-09-07T10:44:25;28.50;69.10
5027;DHT22;2532;52.480;13.354;2023-09-07T10:46:52;28.60;67.40
5027;DHT22;2532;52.480;13.354;2023-09-07T10:49:19;28.60;68.20
5027;DHT22;2532;52.480;13.354;2023-09-07T10:51:46;28.70;68.00
5027;DHT22;2532;52.480;13.354;2023-09-07T10:54:15;28.70;68.70
5027;DHT22;2532;52.480;13.354;2023-09-07T10:56:44;28.80;68.20
5027;DHT22;2532;52.480;13.354;2023-09-07T10:59:11;28.80;67.20
5027;DHT22;2532;52.480;13.354;2023-09-07T11:01:39;28.80;66.60
5027;DHT22;2532;52.480;13.354;2023-09-07T11:04:06;28.80;66.30
5027;DHT22;2532;52.480;13.354;2023-09-07T11:06:37;28.90;66.10
5027;DHT22;2532;52.480;13.354;2023-09-07T11:09:04;28.80;65.80
5027;DHT22;2532;52.480;13.354;2023-09-07T11:11:36;28.80;65.10
5027;DHT22;2532;52.480;13.354;2023-09-07T11:14:03;28.90;65.70
5027;DHT22;2532;52.480;13.354;2023-09-07T11:16:30;28.90;66.00
5027;DHT22;2532;52.480;13.354;2023-09-07T11:18:59;29.00;65.80
5027;DHT22;2532;52.480;13.354;2023-09-07T11:21:30;28.90;64.50
5027;DHT22;2532;52.480;13.354;2023-09-07T11:23:58;29.00;64.60
5027;DHT22;2532;52.480;13.354;2023-09-07T11:26:25;29.00;65.20
5027;DHT22;2532;52.480;13.354;2023-09-07T11:28:53;29.00;64.80
5027;DHT22;2532;52.480;13.354;2023-09-07T11:31:21;29.00;64.00
5027;DHT22;2532;52.480;13.354;2023-09-07T11:33:48;29.10;64.10
5027;DHT22;2532;52.480;13.354;2023-09-07T11:36:15;29.00;63.40
5027;DHT22;2532;52.480;13.354;2023-09-07T11:38:43;29.00;63.00
5027;DHT22;2532;52.480;13.354;2023-09-07T11:41:11;29.00;62.90
5027;DHT22;2532;52.480;13.354;2023-09-07T11:43:38;29.10;62.40
5027;DHT22;2532;52.480;13.354;2023-09-07T11:46:06;29.10;61.90
5027;DHT22;2532;52.480;13.354;2023-09-07T11:48:33;29.10;61.50
5027;DHT22;2532;52.480;13.354;2023-09-07T11:51:00;29.20;60.80
5027;DHT22;2532;52.480;13.354;2023-09-07T11:53:27;29.20;61.10
5027;DHT22;2532;52.480;13.354;2023-09-07T11:55:55;29.20;59.90
5027;DHT22;2532;52.480;13.354;2023-09-07T11:58:22;29.30;60.10
5027;DHT22;2532;52.480;13.354;2023-09-07T12:00:50;29.20;60.60
5027;DHT22;2532;52.480;13.354;2023-09-07T12:03:19;29.30;60.80
5027;DHT22;2532;52.480;13.354;2023-09-07T12:05:45;29.30;60.90
5027;DHT22;2532;52.480;13.354;2023-09-07T12:08:12;29.30;60.90
5027;DHT22;2532;52.480;13.354;2023-09-07T12:10:40;29.30;60.80
5027;DHT22;2532;52.480;13.354;2023-09-07T12:13:07;29.30;60.60
5027;DHT22;2532;52.480;13.354;2023-09-07T12:15:34;29.40;60.70
5027;DHT22;2532;52.480;13.354;2023-09-07T12:18:01;29.40;61.10
5027;DHT22;2532;52.480;13.354;2023-09-07T12:20:29;29.50;60.10
5027;DHT22;2532;52.480;13.354;2023-09-07T12:22:56;29.50;59.60
5027;DHT22;2532;52.480;13.354;2023-09-07T12:25:23;29.60;59.40
5027;DHT22;2532;52.480;13.354;2023-09-07T12:27:50;29.60;59.00
5027;DHT22;2532;52.480;13.354;2023-09-07T12:30:18;29.70;58.80
5027;DHT22;2532;52.480;13.354;2023-09-07T12:32:45;29.70;59.60
5027;DHT22;2532;52.480;13.354;2023-09-07T12:35:12;29.70;59.40
5027;DHT22;2532;52.480;13.354;2023-09-07T12:37:42;29.70;59.20
5027;DHT22;2532;52.480;13.354;2023-09-07T12:40:10;29.80;59.30
5027;DHT22;2532;52.480;13.354;2023-09-07T12:42:41;29.80;59.60
5027;DHT22;2532;52.480;13.354;2023-09-07T12:45:09;29.80;60.20
5027;DHT22;2532;52.480;13.354;2023-09-07T12:47:37;29.90;60.30
5027;DHT22;2532;52.480;13.354;2023-09-07T12:50:05;29.90;60.20
5027;DHT22;2532;52.480;13.354;2023-09-07T12:52:33;30.00;59.40
5027;DHT22;2532;52.480;13.354;2023-09-07T12:55:03;30.00;59.80
5027;DHT22;2532;52.480;13.354;2023-09-07T12:57:30;30.00;59.90
5027;DHT22;2532;52.480;13.354;2023-09-07T12:59:57;30.00;60.50
5027;DHT22;2532;52.480;13.354;2023-09-07T13:02:25;30.00;60.30
5027;DHT22;2532;52.480;13.354;2023-09-07T13:04:54;30.10;60.20
5027;DHT22;2532;52.480;13.354;2023-09-07T13:07:21;30.20;59.20
5027;DHT22;2532;52.480;13.354;2023-09-07T13:09:48;30.20;59.30
5027;DHT22;2532;52.480;13.354;2023-09-07T13:12:16;30.30;58.30
5027;DHT22;2532;52.480;13.354;2023-09-07T13:14:43;30.40;58.50
5027;DHT22;2532;52.480;13.354;2023-09-07T13:17:12;30.40;57.30
5027;DHT22;2532;52.480;13.354;2023-09-07T13:19:39;30.40;57.40
5027;DHT22;2532;52.480;13.354;2023-09-07T13:22:06;30.50;57.60
5027;DHT22;2532;52.480;13.354;2023-09-07T13:24:34;30.60;58.20
5027;DHT22;2532;52.480;13.354;2023-09-07T13:27:00;30.60;57.80
5027;DHT22;2532;52.480;13.354;2023-09-07T13:29:31;30.70;57.10
5027;DHT22;2532;52.480;13.354;2023-09-07T13:31:58;30.80;57.90
5027;DHT22;2532;52.480;13.354;2023-09-07T13:34:25;30.80;56.10
5027;DHT22;2532;52.480;13.354;2023-09-07T13:36:52;30.80;55.90
5027;DHT22;2532;52.480;13.354;2023-09-07T13:39:20;30.80;55.50
5027;DHT22;2532;52.480;13.354;2023-09-07T13:41:47;30.80;55.50
5027;DHT22;2532;52.480;13.354;2023-09-07T13:44:14;30.80;55.50
5027;DHT22;2532;52.480;13.354;2023-09-07T13:46:43;30.90;55.50
5027;DHT22;2532;52.480;13.354;2023-09-07T13:49:11;30.90;55.30
5027;DHT22;2532;52.480;13.354;2023-09-07T13:51:39;31.00;56.20
5027;DHT22;2532;52.480;13.354;2023-09-07T13:54:06;31.10;55.60
5027;DHT22;2532;52.480;13.354;2023-09-07T13:56:33;31.20;54.90
5027;DHT22;2532;52.480;13.354;2023-09-07T13:59:02;31.20;55.50
5027;DHT22;2532;52.480;13.354;2023-09-07T14:01:29;31.30;54.50
5027;DHT22;2532;52.480;13.354;2023-09-07T14:03:57;31.30;54.60
5027;DHT22;2532;52.480;13.354;2023-09-07T14:06:24;31.30;54.90
5027;DHT22;2532;52.480;13.354;2023-09-07T14:08:51;31.30;55.40
5027;DHT22;2532;52.480;13.354;2023-09-07T14:11:18;31.30;54.50
5027;DHT22;2532;52.480;13.354;2023-09-07T14:13:47;31.30;54.60
5027;DHT22;2532;52.480;13.354;2023-09-07T14:16:17;31.30;54.70
5027;DHT22;2532;52.480;13.354;2023-09-07T14:18:44;31.20;54.70
5027;DHT22;2532;52.480;13.354;2023-09-07T14:21:14;31.20;55.10
5027;DHT22;2532;52.480;13.354;2023-09-07T14:23:42;31.20;55.10
5027;DHT22;2532;52.480;13.354;2023-09-07T14:26:09;31.20;55.10
5027;DHT22;2532;52.480;13.354;2023-09-07T14:28:36;31.30;55.30
5027;DHT22;2532;52.480;13.354;2023-09-07T14:31:05;31.40;54.90
5027;DHT22;2532;52.480;13.354;2023-09-07T14:33:33;31.40;54.70
5027;DHT22;2532;52.480;13.354;2023-09-07T14:36:02;31.40;55.00
5027;DHT22;2532;52.480;13.354;2023-09-07T14:38:30;31.40;54.70
5027;DHT22;2532;52.480;13.354;2023-09-07T14:41:01;31.40;55.40
5027;DHT22;2532;52.480;13.354;2023-09-07T14:43:28;31.40;54.70
5027;DHT22;2532;52.480;13.354;2023-09-07T14:45:55;31.40;54.90
5027;DHT22;2532;52.480;13.354;2023-09-07T14:48:22;31.40;55.00
5027;DHT22;2532;52.480;13.354;2023-09-07T14:50:49;31.40;55.10
5027;DHT22;2532;52.480;13.354;2023-09-07T14:53:16;31.40;55.20
5027;DHT22;2532;52.480;13.354;2023-09-07T14:55:45;31.40;55.10
5027;DHT22;2532;52.480;13.354;2023-09-07T14:58:12;31.40;55.10
5027;DHT22;2532;52.480;13.354;2023-09-07T15:00:39;31.50;55.30
5027;DHT22;2532;52.480;13.354;2023-09-07T15:03:06;31.50;55.20
5027;DHT22;2532;52.480;13.354;2023-09-07T15:05:32;31.60;54.80
5027;DHT22;2532;52.480;13.354;2023-09-07T15:08:00;31.60;54.70
5027;DHT22;2532;52.480;13.354;2023-09-07T15:10:28;31.60;54.60
5027;DHT22;2532;52.480;13.354;2023-09-07T15:12:57;31.60;54.70
5027;DHT22;2532;52.480;13.354;2023-09-07T15:15:24;31.70;55.00
5027;DHT22;2532;52.480;13.354;2023-09-07T15:17:50;31.70;54.90
5027;DHT22;2532;52.480;13.354;2023-09-07T15:20:17;31.80;54.70
5027;DHT22;2532;52.480;13.354;2023-09-07T15:22:44;31.90;54.70
5027;DHT22;2532;52.480;13.354;2023-09-07T15:25:11;31.90;54.70
5027;DHT22;2532;52.480;13.354;2023-09-07T15:27:38;31.90;54.90
5027;DHT22;2532;52.480;13.354;2023-09-07T15:30:08;32.00;54.80
5027;DHT22;2532;52.480;13.354;2023-09-07T15:32:35;32.10;55.50
5027;DHT22;2532;52.480;13.354;2023-09-07T15:35:02;32.30;55.40
5027;DHT22;2532;52.480;13.354;2023-09-07T15:37:29;32.50;54.80
5027;DHT22;2532;52.480;13.354;2023-09-07T15:39:56;32.60;54.20
5027;DHT22;2532;52.480;13.354;2023-09-07T15:42:42;32.60;53.90
5027;DHT22;2532;52.480;13.354;2023-09-07T15:45:11;32.70;54.40
5027;DHT22;2532;52.480;13.354;2023-09-07T15:47:38;32.60;54.40
5027;DHT22;2532;52.480;13.354;2023-09-07T15:50:18;32.60;54.60
5027;DHT22;2532;52.480;13.354;2023-09-07T15:52:48;32.60;54.80
5027;DHT22;2532;52.480;13.354;2023-09-07T15:55:17;32.60;54.80
5027;DHT22;2532;52.480;13.354;2023-09-07T15:57:44;32.50;54.80
5027;DHT22;2532;52.480;13.354;2023-09-07T16:00:15;32.60;55.30
5027;DHT22;2532;52.480;13.354;2023-09-07T16:02:43;32.70;54.80
5027;DHT22;2532;52.480;13.354;2023-09-07T16:05:10;32.80;54.80
5027;DHT22;2532;52.480;13.354;2023-09-07T16:07:38;32.80;54.90
5027;DHT22;2532;52.480;13.354;2023-09-07T16:10:05;32.80;54.70
5027;DHT22;2532;52.480;13.354;2023-09-07T16:12:33;32.70;54.70
5027;DHT22;2532;52.480;13.354;2023-09-07T16:14:59;32.60;54.70
5027;DHT22;2532;52.480;13.354;2023-09-07T16:17:28;32.30;54.80
5027;DHT22;2532;52.480;13.354;2023-09-07T16:19:55;32.10;54.50
5027;DHT22;2532;52.480;13.354;2023-09-07T16:22:22;32.00;54.70
5027;DHT22;2532;52.480;13.354;2023-09-07T16:24:49;32.00;54.30
5027;DHT22;2532;52.480;13.354;2023-09-07T16:27:16;32.10;54.00
5027;DHT22;2532;52.480;13.354;2023-09-07T16:29:43;32.30;53.80
5027;DHT22;2532;52.480;13.354;2023-09-07T16:32:11;32.40;53.60
5027;DHT22;2532;52.480;13.354;2023-09-07T16:34:41;32.60;53.10
5027;DHT22;2532;52.480;13.354;2023-09-07T16:37:08;32.80;52.40
5027;DHT22;2532;52.480;13.354;2023-09-07T16:39:35;32.90;52.80
5027;DHT22;2532;52.480;13.354;2023-09-07T16:42:03;33.10;52.10
5027;DHT22;2532;52.480;13.354;2023-09-07T16:44:30;33.30;51.60
5027;DHT22;2532;52.480;13.354;2023-09-07T16:46:57;33.40;51.50
5027;DHT22;2532;52.480;13.354;2023-09-07T16:49:24;33.50;51.70
5027;DHT22;2532;52.480;13.354;2023-09-07T16:51:52;33.60;51.80
5027;DHT22;2532;52.480;13.354;2023-09-07T16:54:19;33.60;51.40
5027;DHT22;2532;52.480;13.354;2023-09-07T16:56:46;33.50;51.70
5027;DHT22;2532;52.480;13.354;2023-09-07T16:59:13;33.30;52.60
5027;DHT22;2532;52.480;13.354;2023-09-07T17:01:41;32.80;52.30
5027;DHT22;2532;52.480;13.354;2023-09-07T17:04:07;32.50;52.90
5027;DHT22;2532;52.480;13.354;2023-09-07T17:06:35;32.00;53.50
5027;DHT22;2532;52.480;13.354;2023-09-07T17:09:03;31.60;54.10
5027;DHT22;2532;52.480;13.354;2023-09-07T17:11:30;31.30;54.50
5027;DHT22;2532;52.480;13.354;2023-09-07T17:13:59;31.00;55.00
5027;DHT22;2532;52.480;13.354;2023-09-07T17:16:25;30.70;55.80
5027;DHT22;2532;52.480;13.354;2023-09-07T17:18:51;30.40;56.00
5027;DHT22;2532;52.480;13.354;2023-09-07T17:21:18;30.20;56.40
5027;DHT22;2532;52.480;13.354;2023-09-07T17:23:45;30.00;56.70
5027;DHT22;2532;52.480;13.354;2023-09-07T17:26:14;29.80;57.00
5027;DHT22;2532;52.480;13.354;2023-09-07T17:28:41;29.70;57.50
5027;DHT22;2532;52.480;13.354;2023-09-07T17:31:12;29.50;57.80
5027;DHT22;2532;52.480;13.354;2023-09-07T17:33:39;29.40;58.10
5027;DHT22;2532;52.480;13.354;2023-09-07T17:36:13;29.20;58.60
5027;DHT22;2532;52.480;13.354;2023-09-07T17:38:40;29.10;58.80
5027;DHT22;2532;52.480;13.354;2023-09-07T17:41:07;29.00;59.00
5027;DHT22;2532;52.480;13.354;2023-09-07T17:43:38;28.90;59.20
5027;DHT22;2532;52.480;13.354;2023-09-07T17:46:05;28.70;59.50
5027;DHT22;2532;52.480;13.354;2023-09-07T17:48:33;28.70;59.80
5027;DHT22;2532;52.480;13.354;2023-09-07T17:51:00;28.60;60.30
5027;DHT22;2532;52.480;13.354;2023-09-07T17:53:28;28.50;60.70
5027;DHT22;2532;52.480;13.354;2023-09-07T17:55:55;28.40;60.90
5027;DHT22;2532;52.480;13.354;2023-09-07T17:58:22;28.30;61.20
5027;DHT22;2532;52.480;13.354;2023-09-07T18:00:50;28.30;61.00
5027;DHT22;2532;52.480;13.354;2023-09-07T18:03:17;28.10;61.20
5027;DHT22;2532;52.480;13.354;2023-09-07T18:05:44;28.10;61.30
5027;DHT22;2532;52.480;13.354;2023-09-07T18:08:11;28.00;61.60
5027;DHT22;2532;52.480;13.354;2023-09-07T18:10:38;27.90;61.90
5027;DHT22;2532;52.480;13.354;2023-09-07T18:13:06;27.90;62.10
5027;DHT22;2532;52.480;13.354;2023-09-07T18:15:33;27.80;62.30
5027;DHT22;2532;52.480;13.354;2023-09-07T18:18:01;27.70;62.60
5027;DHT22;2532;52.480;13.354;2023-09-07T18:20:29;27.60;63.20
5027;DHT22;2532;52.480;13.354;2023-09-07T18:22:56;27.60;63.30
5027;DHT22;2532;52.480;13.354;2023-09-07T18:25:23;27.50;63.20
5027;DHT22;2532;52.480;13.354;2023-09-07T18:27:50;27.50;63.50
5027;DHT22;2532;52.480;13.354;2023-09-07T18:30:17;27.40;63.80
5027;DHT22;2532;52.480;13.354;2023-09-07T18:32:49;27.30;63.90
5027;DHT22;2532;52.480;13.354;2023-09-07T18:35:18;27.30;65.00
5027;DHT22;2532;52.480;13.354;2023-09-07T18:37:46;27.20;64.50
5027;DHT22;2532;52.480;13.354;2023-09-07T18:40:13;27.10;64.50
5027;DHT22;2532;52.480;13.354;2023-09-07T18:42:40;27.10;64.70
5027;DHT22;2532;52.480;13.354;2023-09-07T18:45:10;27.00;65.00
5027;DHT22;2532;52.480;13.354;2023-09-07T18:47:37;27.00;64.90
5027;DHT22;2532;52.480;13.354;2023-09-07T18:50:06;26.90;65.00
5027;DHT22;2532;52.480;13.354;2023-09-07T18:52:34;26.80;65.40
5027;DHT22;2532;52.480;13.354;2023-09-07T18:55:02;26.80;65.40
5027;DHT22;2532;52.480;13.354;2023-09-07T18:57:30;26.80;65.50
5027;DHT22;2532;52.480;13.354;2023-09-07T18:59:57;26.70;65.40
5027;DHT22;2532;52.480;13.354;2023-09-07T19:02:26;26.60;65.50
5027;DHT22;2532;52.480;13.354;2023-09-07T19:04:54;26.60;65.70
5027;DHT22;2532;52.480;13.354;2023-09-07T19:07:22;26.60;65.80
5027;DHT22;2532;52.480;13.354;2023-09-07T19:10:03;26.50;65.80
5027;DHT22;2532;52.480;13.354;2023-09-07T19:12:30;26.40;66.00
5027;DHT22;2532;52.480;13.354;2023-09-07T19:14:59;26.40;66.20
5027;DHT22;2532;52.480;13.354;2023-09-07T19:17:26;26.30;66.30
5027;DHT22;2532;52.480;13.354;2023-09-07T19:19:53;26.30;66.50
5027;DHT22;2532;52.480;13.354;2023-09-07T19:22:20;26.20;66.80
5027;DHT22;2532;52.480;13.354;2023-09-07T19:24:47;26.20;67.30
5027;DHT22;2532;52.480;13.354;2023-09-07T19:27:16;26.10;67.20
5027;DHT22;2532;52.480;13.354;2023-09-07T19:29:43;26.10;67.60
5027;DHT22;2532;52.480;13.354;2023-09-07T19:32:11;26.10;68.00
5027;DHT22;2532;52.480;13.354;2023-09-07T19:34:39;26.00;68.30
5027;DHT22;2532;52.480;13.354;2023-09-07T19:37:06;26.00;68.50
5027;DHT22;2532;52.480;13.354;2023-09-07T19:39:33;26.00;68.70
5027;DHT22;2532;52.480;13.354;2023-09-07T19:42:00;25.90;68.90
5027;DHT22;2532;52.480;13.354;2023-09-07T19:44:29;25.80;68.80
5027;DHT22;2532;52.480;13.354;2023-09-07T19:46:56;25.80;68.70
5027;DHT22;2532;52.480;13.354;2023-09-07T19:49:26;25.70;68.80